Time;durP1;ratioP1;P1;durP2;ratioP2;P2;SDS_P1;SDS_P2;PMS_P1;PMS_P2;Temp;Humidity;BMP_temperature;BMP_pressure;BME280_temperature;BME280_humidity;BME280_pressure;Samples;Min_cycle;Max_cycle;Signal;HPM_P1;HPM_P2
2020/12/20 00:01:24;;;;;;;6.75;3.40;;;;;;;3.67;85.27;98903.98;1662489;86;21576;-67
2020/12/20 00:03:53;;;;;;;8.63;4.40;;;;;;;3.72;85.08;98905.05;1662785;86;21179;-67
2020/12/20 00:06:21;;;;;;;10.65;4.33;;;;;;;3.66;85.31;98901.03;1662139;86;21156;-67
2020/12/20 00:08:50;;;;;;;6.92;3.90;;;;;;;3.66;85.32;98906.62;1662471;86;21144;-68
2020/12/20 00:11:17;;;;;;;10.48;4.40;;;;;;;3.67;85.14;98900.12;1662547;86;21183;-67
2020/12/20 00:13:46;;;;;;;8.05;4.45;;;;;;;3.66;85.15;98905.34;1662570;86;21216;-67
2020/12/20 00:16:18;;;;;;;6.10;3.67;;;;;;;3.56;85.44;98904.98;1662951;86;21318;-68
2020/12/20 00:18:47;;;;;;;6.92;2.80;;;;;;;3.51;85.43;98909.50;1660196;85;21140;-68
2020/12/20 00:21:20;;;;;;;4.67;2.98;;;;;;;3.52;85.51;98909.89;1662697;86;21620;-67
2020/12/20 00:23:53;;;;;;;5.90;3.45;;;;;;;3.47;85.88;98912.30;1662653;86;21146;-67
2020/12/20 00:26:20;;;;;;;4.60;2.70;;;;;;;3.44;86.31;98913.73;1662900;86;21183;-68
2020/12/20 00:28:48;;;;;;;4.58;2.95;;;;;;;3.47;85.92;98917.42;1663196;86;21334;-67
2020/12/20 00:31:17;;;;;;;6.72;2.98;;;;;;;3.47;85.66;98922.56;1662669;86;21171;-68
2020/12/20 00:33:45;;;;;;;6.08;3.22;;;;;;;3.39;86.28;98921.66;1662725;86;21192;-67
2020/12/20 00:36:13;;;;;;;6.45;3.30;;;;;;;3.40;86.22;98919.47;1662663;86;21175;-68
2020/12/20 00:38:40;;;;;;;8.15;3.25;;;;;;;3.41;86.08;98916.45;1662940;86;21171;-67
2020/12/20 00:41:11;;;;;;;6.53;3.05;;;;;;;3.39;86.23;98915.69;1662470;86;21183;-68
2020/12/20 00:43:40;;;;;;;8.05;3.22;;;;;;;3.39;86.23;98915.69;1662656;86;21243;-67
2020/12/20 00:46:08;;;;;;;3.77;2.77;;;;;;;3.28;85.54;98913.20;1662862;86;21143;-67
2020/12/20 00:48:36;;;;;;;4.47;3.00;;;;;;;3.31;86.03;98909.64;1663066;86;21397;-67
2020/12/20 00:51:05;;;;;;;3.75;2.77;;;;;;;3.33;85.72;98917.67;1663118;86;21607;-67
2020/12/20 00:53:37;;;;;;;5.12;2.62;;;;;;;3.26;86.02;98921.89;1663132;86;21195;-67
2020/12/20 00:56:05;;;;;;;8.40;3.37;;;;;;;3.22;85.94;98917.81;1663052;86;21369;-70
2020/12/20 00:58:34;;;;;;;7.45;3.05;;;;;;;3.21;85.77;98924.67;1643844;86;21179;-67
2020/12/20 01:01:03;;;;;;;7.83;3.98;;;;;;;3.23;86.32;98924.13;1662824;86;21608;-68
2020/12/20 01:03:31;;;;;;;7.47;3.33;;;;;;;3.32;86.37;98917.73;1684409;84;21174;-67
2020/12/20 01:05:59;;;;;;;5.12;2.95;;;;;;;3.34;86.01;98915.94;1672418;85;21195;-67
2020/12/20 01:08:27;;;;;;;5.78;2.50;;;;;;;3.31;85.86;98919.46;1692221;84;21290;-67
2020/12/20 01:10:56;;;;;;;4.95;3.08;;;;;;;3.35;85.59;98915.84;1692306;84;21297;-68
2020/12/20 01:13:25;;;;;;;6.05;2.70;;;;;;;3.37;85.71;98917.52;1692145;84;21726;-68
2020/12/20 01:15:53;;;;;;;6.17;2.87;;;;;;;3.32;85.84;98911.31;1691914;84;21301;-68
2020/12/20 01:18:22;;;;;;;5.20;3.27;;;;;;;3.36;85.83;98908.98;1691835;84;21380;-68
2020/12/20 01:20:51;;;;;;;3.65;2.27;;;;;;;3.32;85.37;98908.75;1672498;85;21176;-68
2020/12/20 01:23:22;;;;;;;5.58;2.67;;;;;;;3.37;85.19;98902.95;1692264;85;21600;-68
2020/12/20 01:25:50;;;;;;;4.37;2.25;;;;;;;3.40;85.15;98903.23;1692029;84;21680;-69
2020/12/20 01:28:19;;;;;;;7.65;3.87;;;;;;;3.43;85.21;98900.51;1676164;85;21348;-68
2020/12/20 01:30:47;;;;;;;4.35;2.65;;;;;;;3.39;85.50;98904.13;1692080;84;21364;-68
2020/12/20 01:33:17;;;;;;;8.40;2.35;;;;;;;3.43;85.49;98905.20;1691963;84;21171;-68
2020/12/20 01:38:51;;;;;;;7.67;2.98;;;;;;;3.39;85.35;98912.67;1660398;86;21131;-68
2020/12/20 01:41:20;;;;;;;3.75;3.30;;;;;;;3.42;85.47;98908.69;1653587;87;21212;-68
2020/12/20 01:43:54;;;;;;;5.25;2.45;;;;;;;3.46;85.35;98906.80;1653984;87;21152;-67
2020/12/20 01:46:26;;;;;;;4.25;2.25;;;;;;;3.53;85.25;98909.44;1660709;86;21528;-70
2020/12/20 01:48:54;;;;;;;5.62;2.70;;;;;;;3.54;84.91;98908.54;1661192;86;21176;-68
2020/12/20 01:51:22;;;;;;;4.67;2.37;;;;;;;3.50;85.08;98910.41;1661950;86;21165;-69
2020/12/20 01:53:52;;;;;;;4.53;2.33;;;;;;;3.60;84.92;98904.37;1653207;87;21180;-68
2020/12/20 01:56:20;;;;;;;5.05;2.35;;;;;;;3.65;84.78;98901.13;1654588;87;21188;-68
2020/12/20 01:58:50;;;;;;;4.10;2.12;;;;;;;3.70;84.88;98898.69;1661937;86;21175;-67
2020/12/20 02:01:20;;;;;;;4.92;2.08;;;;;;;3.75;84.66;98899.74;1660385;86;21195;-67
2020/12/20 02:03:58;;;;;;;4.00;2.37;;;;;;;3.76;84.65;98898.39;1660394;86;21112;-67
2020/12/20 02:06:28;;;;;;;6.22;2.95;;;;;;;3.76;84.28;98903.98;1660923;86;21144;-67
2020/12/20 02:08:58;;;;;;;5.50;2.02;;;;;;;3.79;84.32;98893.55;1662038;86;21679;-65
2020/12/20 02:11:26;;;;;;;4.45;2.50;;;;;;;3.78;84.32;98899.58;1660482;86;21201;-68
2020/12/20 02:13:55;;;;;;;6.60;3.22;;;;;;;3.77;84.24;98901.80;1662272;86;21183;-65
2020/12/20 02:16:27;;;;;;;4.42;2.67;;;;;;;3.69;84.57;98894.93;1660036;86;21164;-67
2020/12/20 02:18:56;;;;;;;5.83;2.90;;;;;;;3.64;84.91;98897.72;1661450;86;21206;-68
2020/12/20 02:21:25;;;;;;;6.17;2.70;;;;;;;3.53;85.31;98894.86;1654312;87;21176;-68
2020/12/20 02:23:55;;;;;;;5.17;2.52;;;;;;;3.53;85.01;98898.72;1654337;87;21180;-70
2020/12/20 02:26:27;;;;;;;5.62;2.52;;;;;;;3.56;85.20;98902.86;1662096;86;21182;-68
2020/12/20 02:28:56;;;;;;;10.48;2.80;;;;;;;3.60;85.08;98901.80;1654023;87;21247;-67
2020/12/20 02:31:28;;;;;;;4.67;3.25;;;;;;;3.47;85.62;98902.02;1653370;87;21187;-67
2020/12/20 02:33:57;;;;;;;7.53;3.05;;;;;;;3.49;84.88;98901.06;1661493;86;21181;-67
2020/12/20 02:36:26;;;;;;;6.42;2.75;;;;;;;3.48;84.87;98899.84;1660244;86;21305;-67
2020/12/20 02:38:55;;;;;;;8.63;3.70;;;;;;;3.43;84.57;98899.23;1661307;85;21174;-67
2020/12/20 02:41:43;;;;;;;6.28;3.10;;;;;;;3.42;85.14;98901.44;1656138;86;21642;-67
2020/12/20 02:44:12;;;;;;;6.25;2.70;;;;;;;3.39;84.94;98895.15;1628687;88;21183;-67
2020/12/20 02:46:43;;;;;;;4.37;2.40;;;;;;;3.36;84.56;98896.14;1657960;86;21123;-67
2020/12/20 02:49:13;;;;;;;8.15;3.47;;;;;;;3.38;84.50;98895.63;1657488;86;21151;-67
2020/12/20 02:51:42;;;;;;;4.92;2.30;;;;;;;3.35;84.68;98899.16;1603272;88;21694;-68
2020/12/20 02:54:11;;;;;;;3.05;2.17;;;;;;;3.40;84.65;98898.94;1631445;88;21305;-65
2020/12/20 02:56:45;;;;;;;7.50;3.20;;;;;;;3.40;84.72;98892.52;1658387;86;21171;-65
2020/12/20 02:59:18;;;;;;;4.78;2.75;;;;;;;3.38;84.80;98892.22;1613673;88;21166;-65
2020/12/20 03:01:46;;;;;;;7.78;3.05;;;;;;;3.35;84.49;98897.03;1631334;88;21329;-66
2020/12/20 03:04:14;;;;;;;4.78;2.70;;;;;;;3.33;84.42;98899.70;1658372;86;21190;-65
2020/12/20 03:06:43;;;;;;;5.03;2.42;;;;;;;3.38;84.26;98903.33;1628616;88;21178;-67
2020/12/20 03:09:11;;;;;;;7.72;2.90;;;;;;;3.32;83.54;98899.31;1658269;86;21211;-65
2020/12/20 03:11:40;;;;;;;6.75;2.85;;;;;;;3.33;83.58;98906.12;1658251;86;21179;-65
2020/12/20 03:14:10;;;;;;;6.28;3.12;;;;;;;3.30;83.67;98901.14;1628770;88;21174;-67
2020/12/20 03:16:40;;;;;;;5.47;2.72;;;;;;;3.32;83.80;98905.73;1630679;88;21301;-67
2020/12/20 03:19:08;;;;;;;6.25;3.22;;;;;;;3.31;83.75;98905.34;1658363;86;21285;-68
2020/12/20 03:21:37;;;;;;;4.53;2.02;;;;;;;3.31;83.84;98906.62;1628850;88;21165;-67
2020/12/20 03:24:22;;;;;;;4.33;2.22;;;;;;;3.32;84.37;98903.16;1628102;88;21191;-68
2020/12/20 03:26:54;;;;;;;5.22;3.30;;;;;;;3.34;84.06;98905.67;1656602;86;21214;-69
2020/12/20 03:29:27;;;;;;;5.37;2.22;;;;;;;3.28;84.09;98902.94;1626897;88;21214;-67
2020/12/20 03:32:00;;;;;;;7.22;3.08;;;;;;;3.28;84.05;98906.78;1594931;86;22232;-65
2020/12/20 03:34:36;;;;;;;4.80;2.75;;;;;;;3.32;84.09;98908.30;1657416;86;21163;-67
2020/12/20 03:37:12;;;;;;;3.42;1.90;;;;;;;3.27;84.12;98902.99;1657809;86;21166;-65
2020/12/20 03:39:42;;;;;;;5.40;3.02;;;;;;;3.21;84.06;98897.72;1627182;88;21163;-65
2020/12/20 03:42:12;;;;;;;5.28;2.58;;;;;;;3.21;84.00;98897.72;1629061;88;21192;-67
2020/12/20 03:44:40;;;;;;;4.90;1.90;;;;;;;3.19;83.92;98896.15;1651186;87;21193;-67
2020/12/20 03:47:10;;;;;;;4.55;2.85;;;;;;;3.22;83.98;98904.98;1651424;87;21392;-67
2020/12/20 03:49:39;;;;;;;6.78;3.27;;;;;;;3.20;83.61;98899.91;1651395;87;21619;-68
2020/12/20 03:52:07;;;;;;;3.00;1.95;;;;;;;3.20;83.81;98899.07;1651421;87;21581;-67
2020/12/20 03:54:49;;;;;;;3.72;2.27;;;;;;;3.26;83.72;98898.34;1648298;87;21768;-67
2020/12/20 03:57:17;;;;;;;4.08;1.82;;;;;;;3.28;83.59;98899.08;1655627;87;21182;-67
2020/12/20 03:59:46;;;;;;;4.08;2.22;;;;;;;3.21;83.15;98898.17;1655649;87;21198;-67
2020/12/20 04:02:14;;;;;;;5.12;2.50;;;;;;;3.23;83.59;98897.19;1655583;87;21206;-67
2020/12/20 04:04:43;;;;;;;3.62;2.37;;;;;;;3.20;83.33;98896.50;1630493;88;21154;-67
2020/12/20 04:07:11;;;;;;;5.25;2.72;;;;;;;3.23;82.94;98899.75;1629208;88;21191;-67
2020/12/20 04:09:42;;;;;;;2.92;1.67;;;;;;;3.21;83.18;98902.86;1651261;87;21200;-67
2020/12/20 04:12:17;;;;;;;3.50;1.70;;;;;;;3.22;83.04;98904.53;1651128;87;21144;-67
2020/12/20 04:14:47;;;;;;;5.55;2.30;;;;;;;3.29;83.19;98903.32;1651440;87;21186;-68
2020/12/20 04:17:15;;;;;;;6.65;2.25;;;;;;;3.28;83.01;98900.36;1651572;87;21337;-67
2020/12/20 04:19:43;;;;;;;4.30;2.42;;;;;;;3.30;83.21;98902.87;1651467;87;21195;-65
2020/12/20 04:22:13;;;;;;;4.17;1.85;;;;;;;3.33;83.32;98899.70;1649893;87;21619;-67
2020/12/20 04:24:59;;;;;;;3.77;1.98;;;;;;;3.35;82.87;98896.59;1651678;87;21197;-66
2020/12/20 04:27:29;;;;;;;3.05;1.87;;;;;;;3.35;82.62;98896.59;1650474;87;21196;-67
2020/12/20 04:29:59;;;;;;;2.87;1.65;;;;;;;3.24;81.87;98887.75;1655418;86;21544;-64
2020/12/20 04:32:27;;;;;;;4.25;1.55;;;;;;;3.25;81.40;98890.70;1655586;87;21179;-64
2020/12/20 04:34:55;;;;;;;2.92;1.10;;;;;;;3.31;81.04;98896.36;1655571;87;21262;-65
2020/12/20 04:37:23;;;;;;;2.40;1.62;;;;;;;3.27;80.86;98891.00;1655703;87;21593;-66
2020/12/20 04:40:00;;;;;;;1.85;1.40;;;;;;;3.32;80.99;98895.46;1649450;87;21625;-63
2020/12/20 04:42:31;;;;;;;3.80;1.95;;;;;;;3.39;80.74;98888.73;1650981;87;21761;-63
2020/12/20 04:45:01;;;;;;;3.62;1.77;;;;;;;3.42;79.06;98889.89;1651417;87;21199;-65
2020/12/20 04:47:31;;;;;;;4.60;2.10;;;;;;;3.44;79.48;98881.64;1651277;87;21227;-64
2020/12/20 04:50:01;;;;;;;4.97;1.92;;;;;;;3.47;79.87;98882.31;1651380;87;21321;-63
2020/12/20 04:52:32;;;;;;;4.83;1.82;;;;;;;3.55;79.96;98879.36;1651531;87;21312;-63
2020/12/20 04:55:02;;;;;;;3.30;1.40;;;;;;;3.63;80.09;98882.38;1651352;87;21178;-65
2020/12/20 04:57:34;;;;;;;3.65;1.75;;;;;;;3.64;77.84;98877.17;1648149;87;21267;-64
2020/12/20 05:00:07;;;;;;;3.85;1.92;;;;;;;3.69;78.58;98876.95;1651706;87;21187;-65
2020/12/20 05:02:36;;;;;;;2.40;1.22;;;;;;;3.69;77.50;98881.64;1651743;87;21325;-66
2020/12/20 05:05:05;;;;;;;3.67;2.00;;;;;;;3.70;78.26;98890.98;1651343;87;21170;-66
2020/12/20 05:07:34;;;;;;;3.17;1.50;;;;;;;3.74;78.59;98885.23;1651525;87;21262;-65
2020/12/20 05:10:06;;;;;;;2.90;1.65;;;;;;;3.78;78.90;98881.15;1651485;87;21336;-63
2020/12/20 05:12:38;;;;;;;5.08;1.87;;;;;;;3.78;78.65;98879.86;1655203;86;21183;-64
2020/12/20 05:15:25;;;;;;;4.08;1.52;;;;;;;3.79;78.51;98874.28;1655023;86;21179;-64
2020/12/20 05:18:17;;;;;;;5.22;2.05;;;;;;;3.79;78.61;98882.81;1655784;87;21207;-65
2020/12/20 05:20:51;;;;;;;4.70;1.85;;;;;;;3.78;78.62;98876.46;1655445;86;21822;-63
2020/12/20 05:23:21;;;;;;;2.42;1.35;;;;;;;3.77;78.70;98881.25;1630653;88;21134;-63
2020/12/20 05:25:51;;;;;;;2.77;1.35;;;;;;;3.76;78.61;98881.70;1628630;88;21155;-64
2020/12/20 05:28:23;;;;;;;5.12;2.08;;;;;;;3.75;78.38;98876.62;1651270;87;21179;-65
2020/12/20 05:30:53;;;;;;;5.42;1.80;;;;;;;3.73;78.53;98875.89;1650795;87;21600;-66
2020/12/20 05:33:32;;;;;;;4.37;2.25;;;;;;;3.71;77.35;98872.09;1649580;87;21191;-62
2020/12/20 05:36:07;;;;;;;5.25;1.67;;;;;;;3.67;77.65;98879.58;1649997;87;21175;-63
2020/12/20 05:38:37;;;;;;;3.62;1.70;;;;;;;3.68;78.15;98877.84;1651605;87;21313;-63
2020/12/20 05:41:06;;;;;;;3.52;1.60;;;;;;;3.67;77.87;98883.44;1630299;87;21255;-63
2020/12/20 05:43:34;;;;;;;3.47;1.77;;;;;;;3.66;78.45;98885.63;1654182;87;21156;-65
2020/12/20 05:46:04;;;;;;;7.70;1.82;;;;;;;3.66;78.59;98890.76;1653912;87;21208;-65
2020/12/20 05:48:43;;;;;;;2.50;1.40;;;;;;;3.67;78.80;98887.29;1654102;87;21179;-63
2020/12/20 05:51:12;;;;;;;1.98;1.52;;;;;;;3.68;78.70;98890.24;1653576;87;21191;-63
2020/12/20 05:53:41;;;;;;;3.52;2.35;;;;;;;3.70;78.85;98885.01;1653985;87;21195;-64
2020/12/20 05:56:14;;;;;;;4.83;1.95;;;;;;;3.70;78.59;98891.43;1653926;87;21210;-65
2020/12/20 05:58:43;;;;;;;4.67;1.80;;;;;;;3.71;78.70;98890.53;1658358;86;21195;-65
2020/12/20 06:01:13;;;;;;;4.53;2.92;;;;;;;3.72;78.67;98897.34;1658229;86;21190;-66
2020/12/20 06:03:41;;;;;;;3.20;1.32;;;;;;;3.68;78.13;98894.55;1628599;88;21234;-65
2020/12/20 06:06:13;;;;;;;2.95;2.20;;;;;;;3.66;78.53;98893.33;1658067;86;21191;-66
2020/12/20 06:08:46;;;;;;;4.42;2.55;;;;;;;3.67;78.83;98892.42;1658035;86;21195;-64
2020/12/20 06:11:24;;;;;;;6.53;2.58;;;;;;;3.65;78.57;98893.42;1601851;88;21828;-65
2020/12/20 06:13:54;;;;;;;4.40;2.35;;;;;;;3.63;78.96;98889.63;1631518;88;21580;-66
2020/12/20 06:16:25;;;;;;;7.15;2.62;;;;;;;3.66;79.13;98896.34;1658263;86;21206;-67
2020/12/20 06:18:58;;;;;;;4.97;2.70;;;;;;;3.66;78.83;98899.75;1628756;88;21579;-65
2020/12/20 06:21:31;;;;;;;6.72;2.47;;;;;;;3.64;78.84;98899.45;1631018;88;21174;-67
2020/12/20 06:24:02;;;;;;;4.70;2.10;;;;;;;3.63;79.11;98899.08;1655882;86;21175;-66
2020/12/20 06:26:33;;;;;;;4.08;2.40;;;;;;;3.63;79.28;98902.48;1658072;86;21167;-67
2020/12/20 06:29:04;;;;;;;5.65;2.75;;;;;;;3.61;79.68;98895.77;1658232;86;21222;-67
2020/12/20 06:31:37;;;;;;;5.95;2.62;;;;;;;3.49;79.72;98905.36;1658141;86;21623;-65
2020/12/20 06:34:11;;;;;;;4.47;2.77;;;;;;;3.50;79.67;98909.59;1658209;86;21196;-65
2020/12/20 06:36:40;;;;;;;4.45;2.17;;;;;;;3.50;79.64;98914.73;1658295;86;21584;-65
2020/12/20 06:39:08;;;;;;;6.95;3.05;;;;;;;3.51;79.94;98914.64;1658314;86;21190;-67
2020/12/20 06:41:38;;;;;;;6.30;2.15;;;;;;;3.44;80.29;98912.45;1655148;86;21715;-65
2020/12/20 06:44:16;;;;;;;3.27;1.62;;;;;;;3.50;80.12;98916.82;1651222;87;21215;-64
2020/12/20 06:46:44;;;;;;;4.28;2.25;;;;;;;3.47;80.27;98921.28;1651535;87;21187;-65
2020/12/20 06:49:40;;;;;;;5.17;2.37;;;;;;;3.44;80.68;98923.55;1651356;87;21636;-64
2020/12/20 06:52:30;;;;;;;3.47;1.77;;;;;;;3.42;80.62;98922.81;1651548;87;21254;-66
2020/12/20 06:55:28;;;;;;;4.58;2.55;;;;;;;3.37;80.62;98925.22;1651386;87;21167;-65
2020/12/20 06:58:10;;;;;;;9.55;2.70;;;;;;;3.35;81.26;98931.70;1647471;86;21215;-64
2020/12/20 07:00:54;;;;;;;4.78;2.22;;;;;;;3.31;81.72;98933.58;1647305;86;21822;-64
2020/12/20 07:03:32;;;;;;;3.75;1.98;;;;;;;3.36;81.70;98933.37;1647410;86;21171;-65
2020/12/20 07:06:17;;;;;;;3.65;2.30;;;;;;;3.38;81.96;98932.02;1647225;86;21186;-64
2020/12/20 07:08:56;;;;;;;4.00;2.10;;;;;;;3.38;82.11;98932.86;1647254;86;21698;-64
2020/12/20 07:11:27;;;;;;;4.30;1.52;;;;;;;3.34;81.96;98936.03;1647246;86;21312;-67
2020/12/20 07:13:56;;;;;;;2.95;1.15;;;;;;;3.35;81.97;98935.55;1647460;86;21195;-67
2020/12/20 07:16:59;;;;;;;5.40;2.25;;;;;;;3.38;82.48;98934.59;1647302;86;21194;-65
2020/12/20 07:19:27;;;;;;;3.15;2.20;;;;;;;3.41;82.30;98939.13;1682954;85;21300;-64
2020/12/20 07:22:00;;;;;;;3.27;2.08;;;;;;;3.47;82.40;98937.97;1686156;85;21324;-67
2020/12/20 07:24:33;;;;;;;2.95;1.62;;;;;;;3.47;82.43;98940.54;1685967;84;21154;-65
2020/12/20 07:27:05;;;;;;;3.02;2.20;;;;;;;3.49;82.53;98942.59;1685921;85;21587;-65
2020/12/20 07:29:38;;;;;;;5.17;3.02;;;;;;;3.51;82.20;98940.77;1685967;85;21720;-65
2020/12/20 07:32:06;;;;;;;4.00;2.52;;;;;;;3.48;82.34;98937.91;1685975;85;21716;-65
2020/12/20 07:34:35;;;;;;;6.53;2.98;;;;;;;3.51;83.04;98945.91;1685980;85;21157;-65
2020/12/20 07:37:04;;;;;;;4.03;2.52;;;;;;;3.54;82.78;98944.02;1686149;85;21387;-65
2020/12/20 07:39:32;;;;;;;4.40;3.17;;;;;;;3.60;82.70;98942.45;1686311;84;21331;-67
2020/12/20 07:42:00;;;;;;;4.95;2.60;;;;;;;3.53;82.95;98941.09;1686025;84;21550;-66
2020/12/20 07:44:35;;;;;;;5.17;2.30;;;;;;;3.49;83.38;98949.85;1686110;85;21163;-66
2020/12/20 07:47:12;;;;;;;3.62;2.05;;;;;;;3.49;83.06;98950.30;1686122;85;21177;-66
2020/12/20 07:49:40;;;;;;;2.95;1.85;;;;;;;3.60;82.96;98949.31;1686498;85;21303;-67
2020/12/20 07:52:09;;;;;;;3.33;1.98;;;;;;;3.72;82.69;98952.57;1686403;85;21605;-66
2020/12/20 07:54:37;;;;;;;4.80;2.27;;;;;;;3.75;82.60;98950.67;1686526;84;21335;-67
2020/12/20 07:57:06;;;;;;;4.75;2.08;;;;;;;3.83;82.44;98946.44;1686430;85;21217;-66
2020/12/20 07:59:35;;;;;;;5.65;1.92;;;;;;;3.86;81.95;98942.88;1686382;85;21705;-68
2020/12/20 08:02:04;;;;;;;4.35;2.60;;;;;;;3.97;82.07;98948.33;1686129;85;21177;-66
2020/12/20 08:04:34;;;;;;;5.33;3.42;;;;;;;4.03;81.62;98948.84;1686474;85;21319;-69
2020/12/20 08:07:03;;;;;;;9.25;3.33;;;;;;;4.06;81.58;98952.53;1686507;85;21571;-67
2020/12/20 08:09:30;;;;;;;6.72;2.75;;;;;;;4.05;81.40;98952.14;1686266;85;21689;-68
2020/12/20 08:11:59;;;;;;;4.67;2.42;;;;;;;3.87;82.13;98947.11;1685916;85;21582;-65
2020/12/20 08:14:27;;;;;;;6.20;3.05;;;;;;;3.99;82.12;98954.20;1686158;85;21332;-65
2020/12/20 08:16:56;;;;;;;3.52;2.25;;;;;;;4.01;81.67;98947.27;1685984;85;21143;-65
2020/12/20 08:19:31;;;;;;;8.28;3.17;;;;;;;3.88;81.62;98948.78;1684573;84;21150;-66
2020/12/20 08:22:07;;;;;;;8.80;3.57;;;;;;;4.00;81.68;98955.42;1651967;86;21180;-64
2020/12/20 08:25:04;;;;;;;6.77;3.43;;;;;;;3.98;82.04;98955.94;1623918;88;21610;-68
2020/12/20 08:27:33;;;;;;;5.67;2.90;;;;;;;3.80;82.85;98956.42;1655977;86;21150;-68
2020/12/20 08:30:11;;;;;;;12.13;4.62;;;;;;;3.81;83.23;98962.40;1684965;84;21636;-65
2020/12/20 08:32:43;;;;;;;6.22;3.08;;;;;;;3.88;82.69;98956.48;1656259;85;21612;-65
2020/12/20 08:35:18;;;;;;;6.08;2.85;;;;;;;3.87;82.84;98955.66;1652059;85;21173;-65
2020/12/20 08:38:09;;;;;;;6.47;4.17;;;;;;;3.85;82.84;98960.50;1674974;84;21627;-65
2020/12/20 08:40:38;;;;;;;3.95;3.20;;;;;;;3.72;83.57;98961.56;1618816;87;21264;-68
2020/12/20 08:43:06;;;;;;;4.45;2.37;;;;;;;3.77;83.19;98961.69;1611910;88;21615;-67
2020/12/20 08:45:58;;;;;;;5.12;2.60;;;;;;;3.83;83.00;98963.97;1611883;89;21221;-66
2020/12/20 08:48:29;;;;;;;7.00;3.50;;;;;;;3.81;82.69;98961.91;1629624;87;21571;-66
2020/12/20 08:50:56;;;;;;;5.20;2.35;;;;;;;3.78;82.61;98961.24;1602340;89;21642;-70
2020/12/20 08:53:25;;;;;;;6.00;2.50;;;;;;;3.90;82.38;98965.77;1629534;88;21602;-68
2020/12/20 08:55:53;;;;;;;4.90;2.60;;;;;;;3.85;83.03;98966.48;1629552;88;21186;-70
2020/12/20 08:58:23;;;;;;;8.90;3.80;;;;;;;3.88;83.82;98965.03;1629359;87;21206;-71
2020/12/20 09:00:56;;;;;;;6.35;3.25;;;;;;;3.94;83.36;98957.45;1629484;87;21215;-72
2020/12/20 09:03:25;;;;;;;7.75;3.77;;;;;;;3.97;83.05;98954.27;1629473;88;21249;-71
2020/12/20 09:05:52;;;;;;;10.95;2.67;;;;;;;4.01;83.08;98957.06;1629517;88;21198;-71
2020/12/20 09:08:21;;;;;;;5.90;3.15;;;;;;;4.02;82.26;98959.18;1629380;88;21245;-72
2020/12/20 09:10:49;;;;;;;4.72;2.33;;;;;;;3.99;82.72;98960.18;1629457;88;21186;-64
2020/12/20 09:13:22;;;;;;;6.97;2.15;;;;;;;4.11;82.33;98957.44;1629456;88;21215;-65
2020/12/20 09:15:54;;;;;;;6.10;3.55;;;;;;;4.16;82.09;98963.19;1629617;87;21249;-67
2020/12/20 09:18:25;;;;;;;7.85;3.70;;;;;;;4.09;82.41;98956.22;1629508;87;21151;-65
2020/12/20 09:20:52;;;;;;;7.30;3.65;;;;;;;4.15;82.16;98953.80;1629581;87;21177;-64
2020/12/20 09:23:25;;;;;;;6.30;3.80;;;;;;;4.18;81.94;98956.21;1629502;88;21255;-69
2020/12/20 09:26:02;;;;;;;5.55;3.60;;;;;;;4.10;82.02;98948.89;1629444;88;21182;-68
2020/12/20 09:28:33;;;;;;;7.60;4.22;;;;;;;4.10;81.42;98943.75;1629651;88;21635;-68
2020/12/20 09:31:05;;;;;;;5.28;2.85;;;;;;;4.16;81.00;98944.70;1629638;88;21190;-67
2020/12/20 09:33:38;;;;;;;5.33;2.80;;;;;;;4.16;81.08;98948.56;1627275;87;21606;-64
2020/12/20 09:36:40;;;;;;;5.03;3.15;;;;;;;4.17;80.86;98944.27;1629413;87;21123;-66
2020/12/20 09:39:08;;;;;;;4.47;3.12;;;;;;;4.22;80.83;98944.86;1649094;87;21182;-65
2020/12/20 09:41:36;;;;;;;7.62;3.08;;;;;;;4.27;80.66;98951.89;1649246;86;21189;-67
2020/12/20 09:44:04;;;;;;;6.25;3.85;;;;;;;4.23;80.53;98943.52;1649003;87;21580;-65
2020/12/20 09:46:35;;;;;;;6.90;4.50;;;;;;;4.22;80.52;98941.84;1649227;86;21184;-67
2020/12/20 09:49:05;;;;;;;7.83;5.12;;;;;;;4.26;80.67;98943.80;1649311;87;21197;-65
2020/12/20 09:51:34;;;;;;;11.15;4.00;;;;;;;4.32;80.83;98943.95;1650923;86;21197;-67
2020/12/20 09:54:02;;;;;;;10.40;4.90;;;;;;;4.38;80.63;98939.75;1666908;85;21365;-67
2020/12/20 09:56:30;;;;;;;7.17;3.92;;;;;;;4.35;80.76;98941.20;1646631;86;21647;-67
2020/12/20 09:58:57;;;;;;;6.90;3.45;;;;;;;4.39;80.54;98940.97;1652588;87;21224;-67
2020/12/20 10:01:25;;;;;;;8.88;3.33;;;;;;;4.39;79.86;98940.14;1667465;85;21178;-67
2020/12/20 10:03:54;;;;;;;8.95;4.28;;;;;;;4.37;79.92;98932.94;1647316;86;21161;-67
2020/12/20 10:06:22;;;;;;;4.95;3.58;;;;;;;4.37;79.99;98930.37;1652350;87;21190;-67
2020/12/20 10:08:50;;;;;;;6.95;3.60;;;;;;;4.28;80.08;98929.10;1667225;85;21599;-67
2020/12/20 10:11:21;;;;;;;7.12;3.22;;;;;;;4.35;79.63;98931.75;1647226;87;21185;-67
2020/12/20 10:13:52;;;;;;;8.03;4.37;;;;;;;4.30;79.80;98928.59;1651967;87;21163;-67
2020/12/20 10:16:21;;;;;;;5.80;3.83;;;;;;;4.31;79.70;98926.39;1667488;85;21691;-67
2020/12/20 10:18:49;;;;;;;4.97;3.15;;;;;;;4.31;79.70;98930.25;1647573;87;21574;-67
2020/12/20 10:21:18;;;;;;;5.22;3.00;;;;;;;4.26;79.34;98924.06;1652651;87;21694;-67
2020/12/20 10:23:48;;;;;;;3.27;2.50;;;;;;;4.32;79.24;98923.38;1667126;86;21575;-66
2020/12/20 10:26:16;;;;;;;5.72;2.67;;;;;;;4.34;79.49;98917.68;1647611;86;21201;-67
2020/12/20 10:28:45;;;;;;;4.62;2.67;;;;;;;4.29;79.06;98921.32;1652604;87;21305;-65
2020/12/20 10:31:19;;;;;;;3.85;2.40;;;;;;;4.32;78.89;98922.09;1667501;85;21333;-65
2020/12/20 10:33:48;;;;;;;2.62;1.45;;;;;;;4.36;78.85;98920.53;1647519;86;21610;-67
2020/12/20 10:36:16;;;;;;;3.22;1.70;;;;;;;4.48;78.50;98920.34;1652237;87;21233;-67
2020/12/20 10:38:44;;;;;;;2.90;1.98;;;;;;;4.51;77.47;98915.06;1667123;85;21177;-66
2020/12/20 10:41:14;;;;;;;3.60;1.75;;;;;;;4.53;77.91;98916.63;1654769;87;21208;-68
2020/12/20 10:43:42;;;;;;;4.10;2.10;;;;;;;4.58;77.88;98912.08;1666821;86;21159;-67
2020/12/20 10:46:12;;;;;;;4.00;1.30;;;;;;;4.61;77.99;98908.50;1654726;87;21150;-66
2020/12/20 10:48:41;;;;;;;2.25;1.45;;;;;;;4.69;76.86;98904.60;1666933;86;21178;-67
2020/12/20 10:51:10;;;;;;;4.30;2.17;;;;;;;4.70;76.06;98907.55;1655425;87;21178;-66
2020/12/20 10:57:15;;;;;;;2.37;1.20;;;;;;;4.76;74.23;98903.80;1653334;86;21599;-65
2020/12/20 10:59:43;;;;;;;1.67;1.50;;;;;;;4.67;73.87;98904.29;1667316;86;21321;-66
2020/12/20 11:02:11;;;;;;;1.65;1.02;;;;;;;4.74;74.23;98904.36;1655992;87;21345;-67
2020/12/20 11:04:40;;;;;;;1.17;0.68;;;;;;;4.82;74.20;98898.80;1651739;86;21183;-66
2020/12/20 11:07:08;;;;;;;3.30;1.77;;;;;;;4.91;73.25;98894.41;1641319;87;21187;-66
2020/12/20 11:09:36;;;;;;;2.12;1.87;;;;;;;4.97;73.14;98891.51;1667361;85;21344;-65
2020/12/20 11:12:05;;;;;;;13.50;6.08;;;;;;;5.00;72.88;98890.05;1655442;87;21170;-68
2020/12/20 11:14:33;;;;;;;5.72;2.87;;;;;;;5.02;72.53;98887.75;1667586;86;21333;-70
2020/12/20 11:17:02;;;;;;;7.85;3.02;;;;;;;5.00;72.79;98888.30;1664640;86;21211;-66
2020/12/20 11:19:30;;;;;;;4.40;2.80;;;;;;;4.94;72.50;98889.91;1627636;88;21174;-66
2020/12/20 11:21:59;;;;;;;3.22;1.67;;;;;;;5.01;72.57;98889.14;1644901;87;21155;-66
2020/12/20 11:24:27;;;;;;;2.25;1.30;;;;;;;5.02;73.43;98885.66;1645883;87;21217;-66
2020/12/20 11:26:55;;;;;;;2.33;1.50;;;;;;;4.96;71.67;98880.37;1646108;86;21159;-68
2020/12/20 11:29:23;;;;;;;2.33;1.07;;;;;;;4.92;71.91;98876.77;1646338;87;21190;-67
2020/12/20 11:31:52;;;;;;;2.87;1.67;;;;;;;4.90;72.02;98878.16;1646234;86;21178;-67
2020/12/20 11:34:22;;;;;;;4.87;1.47;;;;;;;4.94;72.15;98883.48;1646070;87;21186;-64
2020/12/20 11:36:49;;;;;;;3.00;1.40;;;;;;;4.96;72.28;98880.37;1645929;87;21572;-66
2020/12/20 11:39:22;;;;;;;2.20;1.42;;;;;;;5.00;71.89;98881.87;1645740;86;21186;-66
2020/12/20 11:41:47;;;;;;;3.47;1.50;;;;;;;5.02;72.01;98874.07;1626819;88;21194;-67
2020/12/20 11:44:15;;;;;;;5.97;1.35;;;;;;;4.90;72.27;98868.31;1645948;86;21242;-68
2020/12/20 11:46:44;;;;;;;1.80;1.30;;;;;;;4.90;71.86;98862.72;1645915;86;21611;-65
2020/12/20 11:49:12;;;;;;;4.28;1.70;;;;;;;4.91;72.20;98872.08;1646209;87;21227;-66
2020/12/20 11:51:40;;;;;;;4.78;1.37;;;;;;;4.88;71.96;98867.10;1646070;87;21207;-66
2020/12/20 11:54:08;;;;;;;5.25;1.72;;;;;;;4.81;72.47;98869.66;1645768;86;21241;-68
2020/12/20 11:56:36;;;;;;;1.80;1.05;;;;;;;4.81;71.85;98865.79;1646070;87;21242;-66
2020/12/20 11:59:06;;;;;;;2.85;1.77;;;;;;;4.86;72.09;98869.41;1642189;86;21206;-66
2020/12/20 12:05:25;;;;;;;2.17;1.52;;;;;;;4.81;71.67;98867.53;1630438;88;21159;-65
2020/12/20 12:11:31;;;;;;;2.25;1.47;;;;;;;4.78;71.93;98869.38;1641974;87;21314;-65
2020/12/20 12:17:36;;;;;;;1.67;0.85;;;;;;;4.77;72.13;98870.73;1641708;87;21136;-65